Flight Track Log - Related Links

Times and Time Zones

All times are in EDT time to prevent confusion due to time zone crossing. See the N319EE flight status page for this flight to view local times or setup timezone preferences in your user account.

Time Position Orientation Groundspeed Altitude Reporting Facility
EDT Latitude Longitude Course Direction KTS MPH feet Rate Location/Type
Wed 06:55:15 AM 43.1211 -77.7203 270° West 166 191 2,000  Level Cleveland Center
Wed 06:55:59 AM 43.1417 -77.7489 315° West 211 243 3,100 1,527 Climbing Cleveland Center
Wed 06:56:10 AM 43.1531 -77.7492 359° North 189 217 3,400 1,672 Climbing Cleveland Center
Wed 06:57:00 AM 43.1644 -77.7008 72° East 191 220 4,800 1,700 Climbing Cleveland Center
Wed 06:57:10 AM 43.1639 -77.6881 93° East 179 206 5,100 1,452 Climbing Cleveland Center
Wed 06:58:02 AM 43.1628 -77.6339 92° East 181 208 6,300 1,574 Climbing Cleveland Center
Wed 06:58:11 AM 43.1653 -77.6189 77° East 183 211 6,700 1,672 Climbing Cleveland Center
Wed 06:59:03 AM 43.1636 -77.5644 92° East 180 207 8,000 1,593 Climbing Cleveland Center
Wed 07:00:00 AM 43.1789 -77.0844 90° East  Level Estimated
Wed 07:00:04 AM 43.1642 -77.4894 89° East 190 219 9,700  Level Cleveland Center
Wed 07:01:06 AM 43.1639 -77.4142 90° East 196 226 11,300 1,512 Climbing Cleveland Center
Wed 07:02:07 AM 43.1639 -77.3383 90° East 199 229 12,800 1,512 Climbing Cleveland Center
Wed 07:03:09 AM 43.1639 -77.2608 90° East 202 232 14,400 1,561 Climbing Cleveland Center
Wed 07:04:10 AM 43.1636 -77.1697 90° East 201 231 16,000 1,463 Climbing Cleveland Center
Wed 07:05:12 AM 43.1644 -77.0911 89° East 204 235 17,400 1,073 Climbing Cleveland Center
Wed 07:06:13 AM 43.1636 -77.0100 91° East 210 242 18,200 927 Climbing Cleveland Center
Wed 07:07:15 AM 43.1653 -76.9261 88° East 217 250 19,300 1,122 Climbing Cleveland Center
Wed 07:08:16 AM 43.1647 -76.8436 91° East 218 251 20,500 829 Climbing Cleveland Center
Wed 07:09:18 AM 43.1639 -76.7583 91° East 221 254 21,000 242 Climbing Cleveland Center
Wed 07:10:20 AM 43.1633 -76.6592 90° East 258 297 21,000  Level Cleveland Center
Wed 07:11:21 AM 43.1622 -76.5289 91° East 283 326 21,000  Level Cleveland Center
Wed 07:12:22 AM 43.1614 -76.4175 91° East 292 336 21,000  Level Cleveland Center
Wed 07:13:16 AM 43.1636 -76.3317 88° East 287 330 21,000  Level Boston Center
Wed 07:14:16 AM 43.1650 -76.2236 89° East 287 330 21,000  Level Boston Center
Wed 07:15:14 AM 43.1747 -76.1189 83° East 287 330 21,000  Level Boston Center
Wed 07:16:14 AM 43.1822 -76.0111 85° East 287 330 21,000  Level Boston Center
Wed 07:17:14 AM 43.1897 -75.9061 84° East 287 330 21,000  Level Boston Center
Wed 07:18:14 AM 43.1969 -75.8011 85° East 282 325 21,000  Level Boston Center
Wed 07:19:14 AM 43.2064 -75.6933 83° East 282 325 21,000  Level Boston Center
Wed 07:20:17 AM 43.2136 -75.5883 85° East 277 319 21,000  Level Boston Center
Wed 07:21:14 AM 43.2206 -75.4833 85° East 277 319 21,000  Level Boston Center
Wed 07:22:15 AM 43.2297 -75.3753 83° East 272 313 21,000  Level Boston Center
Wed 07:23:15 AM 43.2364 -75.2703 85° East 272 313 21,000  Level Boston Center
Wed 07:24:16 AM 43.2453 -75.1622 84° East 272 313 21,000  Level Boston Center
Wed 07:25:16 AM 43.2519 -75.0542 85° East 272 313 21,000  Level Boston Center
Wed 07:26:15 AM 43.2608 -74.9378 84° East 272 313 21,000  Level Boston Center
Wed 07:27:15 AM 43.2672 -74.8353 85° East 272 313 21,000  Level Boston Center
Wed 07:28:15 AM 43.2756 -74.7300 84° East 272 313 21,000  Level Boston Center
Wed 07:29:15 AM 43.2819 -74.6219 85° East 272 313 21,000  Level Boston Center
Wed 07:30:16 AM 43.2900 -74.5194 84° East 272 313 21,000  Level Boston Center
Wed 07:31:14 AM 43.2961 -74.4142 85° East 272 313 21,000  Level Boston Center
Wed 07:32:15 AM 43.3022 -74.3089 85° East 272 313 21,000  Level Boston Center
Wed 07:33:15 AM 43.3100 -74.2033 84° East 272 313 21,000  Level Boston Center
Wed 07:34:15 AM 43.3158 -74.0981 86° East 272 313 21,000  Level Boston Center
Wed 07:35:16 AM 43.3214 -73.9897 86° East 272 313 21,000  Level Boston Center
Wed 07:36:16 AM 43.3292 -73.8844 84° East 272 313 21,000  Level Boston Center
Wed 07:37:14 AM 43.3367 -73.7789 84° East 272 313 21,000  Level Boston Center
Wed 07:38:15 AM 43.3397 -73.6819 87° East 272 313 21,000  Level Boston Center
Wed 07:39:15 AM 43.3450 -73.5736 86° East 272 313 21,000  Level Boston Center
Wed 07:40:16 AM 43.3544 -73.4708 83° East 272 313 21,000  Level Boston Center
Wed 07:41:14 AM 43.3594 -73.3625 86° East 272 313 21,000  Level Boston Center
Wed 07:42:16 AM 43.3686 -73.2597 83° East 272 313 21,000  Level Boston Center
Wed 07:43:14 AM 43.3736 -73.1542 86° East 272 313 21,000  Level Boston Center
Wed 07:44:15 AM 43.3803 -73.0458 85° East 272 313 21,000  Level Boston Center
Wed 07:45:16 AM 43.3850 -72.9372 87° East 272 313 21,000  Level Boston Center
Wed 07:46:14 AM 43.3917 -72.8314 85° East 272 313 21,000  Level Boston Center
Wed 07:47:15 AM 43.3961 -72.7258 87° East 272 313 21,000  Level Boston Center
Wed 07:48:14 AM 43.4028 -72.6172 85° East 272 313 21,000  Level Boston Center
Wed 07:49:15 AM 43.4069 -72.5058 87° East 272 313 21,000  Level Boston Center
Wed 07:50:16 AM 43.4133 -72.3972 85° East 272 313 21,000  Level Boston Center
Wed 07:51:16 AM 43.4172 -72.2914 87° East 272 313 21,000  Level Boston Center
Wed 07:52:17 AM 43.4233 -72.1800 86° East 272 313 21,000  Level Boston Center
Wed 07:53:14 AM 43.4272 -72.0769 87° East 272 313 21,000  Level Boston Center
Wed 07:54:14 AM 43.4311 -71.9683 87° East 272 313 21,000  Level Boston Center
Wed 07:55:15 AM 43.4367 -71.8597 86° East 272 313 21,000 -744 Level Boston Center
Wed 07:56:15 AM 43.4403 -71.7453 87° East 278 320 19,500 -1,513 Descending Boston Center
Wed 07:57:14 AM 43.4458 -71.6194 86° East 307 353 18,000 -1,700 Descending Boston Center
Wed 07:58:15 AM 43.4489 -71.5022 88° East 312 359 16,100 -1,770 Descending Boston Center
Wed 07:59:16 AM 43.4522 -71.3906 88° East 302 348 14,400 -1,587 Descending Boston Center
Wed 08:00:16 AM 43.4575 -71.2817 86° East 287 330 12,900 -1,475 Descending Boston Center
Wed 08:01:14 AM 43.4625 -71.1758 86° East 282 325 11,500 -966 Descending Boston Center
Wed 08:02:14 AM 43.4822 -71.0781 74° East 268 308 11,000 -400 Descending Boston Center
Wed 08:03:14 AM 43.5061 -70.9858 70° East 251 289 10,700 -1,250 Descending Boston Center
Wed 08:04:14 AM 43.5236 -70.8881 76° East 251 289 8,500 -1,983 Descending Boston Center
Wed 08:05:15 AM 43.5453 -70.7903 73° East 256 295 6,700 -1,525 Descending Boston Center
Wed 08:06:16 AM 43.5647 -70.7094 72° East 256 295 5,400 -1,140 Descending Boston Center
Wed 08:07:16 AM 43.5797 -70.6058 79° East 245 282 4,400 -958 Descending Boston Center
Wed 08:08:15 AM 43.5889 -70.5281 81° East 240 276 3,500 -958 Descending Boston Center
Wed 08:09:15 AM 43.5958 -70.4361 84° East 229 264 2,500 -857 Descending Boston Center
Wed 08:10:14 AM 43.6028 -70.3672 82° East 211 243 1,800 -793 Descending Boston Center
Wed 08:11:16 AM 43.6081 -70.3097 83° East 158 182 900 4,525 Descending Boston Center
Wed 08:12:16 AM 43.6369 -70.3000 14° North 102 117 11,000 5,136 Climbing Boston Center
Wed 08:13:14 AM 43.6550 -70.2564 60° Northeast 102 117 11,000  Level Boston Center
Wed 08:15:00 AM 43.6333 -70.3000 101° East  Level FlightAware Approximate

Login

Don't have an account? Register now (free) for customized features, flight alerts, and more!